Time,TemperatureF,DewpointF,PressureIn,WindDirection,WindDirectionDegrees,WindSpeedMPH,WindSpeedGustMPH,Humidity,HourlyPrecipIn,Conditions,Clouds,dailyrainin,SoftwareType,DateUTC
2013-11-19 00:01:00,25.6,20.3,30.30,West,269,2.0,2.0,80,0.00,,,0.00,Wunderground v.1.15,2013-11-19 06:01:00,
2013-11-19 00:07:00,25.4,20.1,30.30,West,275,2.0,3.0,80,0.00,,,0.00,Wunderground v.1.15,2013-11-19 06:07:00,
2013-11-19 00:13:00,25.4,20.4,30.30,West,270,2.0,4.0,81,0.00,,,0.00,Wunderground v.1.15,2013-11-19 06:13:00,
2013-11-19 00:19:00,25.5,20.5,30.30,West,270,3.0,5.0,81,0.00,,,0.00,Wunderground v.1.15,2013-11-19 06:19:00,
2013-11-19 00:24:00,25.5,20.5,30.30,WSW,257,3.0,3.0,81,0.00,,,0.00,Wunderground v.1.15,2013-11-19 06:24:00,
2013-11-19 00:30:00,25.5,20.5,30.30,West,264,3.0,3.0,81,0.00,,,0.00,Wunderground v.1.15,2013-11-19 06:30:00,
2013-11-19 00:35:00,25.3,20.3,30.30,West,259,3.0,3.0,81,0.00,,,0.00,Wunderground v.1.15,2013-11-19 06:35:00,
2013-11-19 00:41:00,25.3,20.3,30.30,West,270,3.0,3.0,81,0.00,,,0.00,Wunderground v.1.15,2013-11-19 06:41:00,
2013-11-19 00:47:00,25.2,20.5,30.30,WSW,242,3.0,4.0,82,0.00,,,0.00,Wunderground v.1.15,2013-11-19 06:47:00,
2013-11-19 00:52:00,25.1,20.4,30.30,West,271,3.0,4.0,82,0.00,,,0.00,Wunderground v.1.15,2013-11-19 06:52:00,
2013-11-19 00:58:00,24.9,20.2,30.31,WNW,288,2.0,5.0,82,0.00,,,0.00,Wunderground v.1.15,2013-11-19 06:58:00,
2013-11-19 01:03:00,24.7,20.0,30.31,WNW,286,2.0,3.0,82,0.00,,,0.00,Wunderground v.1.15,2013-11-19 07:03:00,
2013-11-19 01:09:00,24.6,20.2,30.32,WSW,254,2.0,3.0,83,0.00,,,0.00,Wunderground v.1.15,2013-11-19 07:09:00,
2013-11-19 01:15:00,24.7,20.3,30.32,West,272,2.0,3.0,83,0.00,,,0.00,Wunderground v.1.15,2013-11-19 07:15:00,
2013-11-19 01:20:00,24.6,20.2,30.32,West,273,2.0,2.0,83,0.00,,,0.00,Wunderground v.1.15,2013-11-19 07:20:00,
2013-11-19 01:26:00,24.5,20.1,30.33,West,265,2.0,4.0,83,0.00,,,0.00,Wunderground v.1.15,2013-11-19 07:26:00,
2013-11-19 01:32:00,24.3,19.9,30.33,WNW,283,1.0,2.0,83,0.00,,,0.00,Wunderground v.1.15,2013-11-19 07:32:00,
2013-11-19 01:37:00,24.1,19.7,30.33,West,269,1.0,2.0,83,0.00,,,0.00,Wunderground v.1.15,2013-11-19 07:37:00,
2013-11-19 01:43:00,23.8,19.4,30.33,SE,142,0.0,1.0,83,0.00,,,0.00,Wunderground v.1.15,2013-11-19 07:43:00,
2013-11-19 01:49:00,23.5,19.4,30.34,WSW,240,0.0,1.0,84,0.00,,,0.00,Wunderground v.1.15,2013-11-19 07:49:00,
2013-11-19 01:54:00,23.3,19.5,30.34,WSW,257,0.0,0.0,85,0.00,,,0.00,Wunderground v.1.15,2013-11-19 07:54:00,
2013-11-19 02:00:00,23.0,19.2,30.34,West,273,0.0,0.0,85,0.00,,,0.00,Wunderground v.1.15,2013-11-19 08:00:00,
2013-11-19 02:06:00,22.9,19.1,30.34,West,264,0.0,0.0,85,0.00,,,0.00,Wunderground v.1.15,2013-11-19 08:06:00,
2013-11-19 02:12:00,22.4,18.6,30.34,West,263,0.0,0.0,85,0.00,,,0.00,Wunderground v.1.15,2013-11-19 08:12:00,
2013-11-19 02:17:00,22.2,18.7,30.34,West,264,0.0,0.0,86,0.00,,,0.00,Wunderground v.1.15,2013-11-19 08:17:00,
2013-11-19 02:23:00,21.9,18.4,30.34,West,264,0.0,0.0,86,0.00,,,0.00,Wunderground v.1.15,2013-11-19 08:23:00,
2013-11-19 02:29:00,21.7,18.7,30.34,West,264,0.0,1.0,88,0.00,,,0.00,Wunderground v.1.15,2013-11-19 08:29:00,
2013-11-19 02:35:00,21.5,18.5,30.34,West,264,0.0,1.0,88,0.00,,,0.00,Wunderground v.1.15,2013-11-19 08:35:00,
2013-11-19 02:41:00,21.2,18.2,30.35,West,264,0.0,0.0,88,0.00,,,0.00,Wunderground v.1.15,2013-11-19 08:41:00,
2013-11-19 02:46:00,21.2,18.5,30.35,West,263,0.0,0.0,89,0.00,,,0.00,Wunderground v.1.15,2013-11-19 08:46:00,
2013-11-19 02:52:00,21.1,18.4,30.35,West,264,0.0,0.0,89,0.00,,,0.00,Wunderground v.1.15,2013-11-19 08:52:00,
2013-11-19 02:58:00,20.8,17.8,30.36,West,264,0.0,1.0,88,0.00,,,0.00,Wunderground v.1.15,2013-11-19 08:58:00,
2013-11-19 03:03:00,20.6,17.9,30.36,West,264,0.0,0.0,89,0.00,,,0.00,Wunderground v.1.15,2013-11-19 09:03:00,
2013-11-19 03:09:00,20.5,17.8,30.36,West,264,0.0,0.0,89,0.00,,,0.00,Wunderground v.1.15,2013-11-19 09:09:00,
2013-11-19 03:14:00,20.5,17.8,30.35,West,264,0.0,0.0,89,0.00,,,0.00,Wunderground v.1.15,2013-11-19 09:14:00,
2013-11-19 03:19:00,20.5,17.8,30.36,West,264,0.0,0.0,89,0.00,,,0.00,Wunderground v.1.15,2013-11-19 09:19:00,
2013-11-19 03:24:00,20.5,17.8,30.36,West,264,0.0,0.0,89,0.00,,,0.00,Wunderground v.1.15,2013-11-19 09:24:00,
2013-11-19 03:29:00,20.5,18.0,30.36,SW,221,0.0,0.0,90,0.00,,,0.00,Wunderground v.1.15,2013-11-19 09:29:00,
2013-11-19 03:35:00,20.4,17.9,30.36,East,98,0.0,1.0,90,0.00,,,0.00,Wunderground v.1.15,2013-11-19 09:35:00,
2013-11-19 03:40:00,20.4,17.9,30.36,East,98,1.0,1.0,90,0.00,,,0.00,Wunderground v.1.15,2013-11-19 09:40:00,
2013-11-19 03:46:00,20.5,18.0,30.36,East,85,1.0,1.0,90,0.00,,,0.00,Wunderground v.1.15,2013-11-19 09:46:00,
2013-11-19 03:51:00,20.3,17.6,30.36,East,84,1.0,1.0,89,0.00,,,0.00,Wunderground v.1.15,2013-11-19 09:51:00,
2013-11-19 03:57:00,20.0,17.3,30.36,East,85,0.0,1.0,89,0.00,,,0.00,Wunderground v.1.15,2013-11-19 09:57:00,
2013-11-19 04:02:00,19.9,17.4,30.37,East,85,0.0,0.0,90,0.00,,,0.00,Wunderground v.1.15,2013-11-19 10:02:00,
2013-11-19 04:08:00,20.2,18.0,30.37,East,85,0.0,0.0,91,0.00,,,0.00,Wunderground v.1.15,2013-11-19 10:08:00,
2013-11-19 04:14:00,20.2,17.7,30.38,East,84,0.0,0.0,90,0.00,,,0.00,Wunderground v.1.15,2013-11-19 10:14:00,
2013-11-19 04:19:00,20.0,17.3,30.38,ESE,113,0.0,1.0,89,0.00,,,0.00,Wunderground v.1.15,2013-11-19 10:19:00,
2013-11-19 04:24:00,20.0,17.3,30.38,ESE,113,1.0,1.0,89,0.00,,,0.00,Wunderground v.1.15,2013-11-19 10:24:00,
2013-11-19 04:29:00,-999.9,-99.9,30.38,North,32767,-999.0,1.0,255,-99.99,,,0.00,Wunderground v.1.15,2013-11-19 10:29:00,
2013-11-19 04:35:00,-999.9,-99.9,30.39,North,32767,-999.0,0.0,255,-99.99,,,0.00,Wunderground v.1.15,2013-11-19 10:35:00,
2013-11-19 04:41:00,-999.9,-99.9,30.39,North,32767,-999.0,0.0,255,-99.99,,,0.00,Wunderground v.1.15,2013-11-19 10:41:00,
2013-11-19 04:47:00,20.2,18.0,30.39,ESE,119,1.0,1.0,91,0.00,,,0.00,Wunderground v.1.15,2013-11-19 10:47:00,
2013-11-19 04:52:00,20.5,18.0,30.39,SE,126,1.0,1.0,90,0.00,,,0.00,Wunderground v.1.15,2013-11-19 10:52:00,
2013-11-19 04:58:00,20.5,17.8,30.39,ESE,118,1.0,1.0,89,0.00,,,0.00,Wunderground v.1.15,2013-11-19 10:58:00,
2013-11-19 05:03:00,20.0,17.3,30.39,ESE,118,0.0,0.0,89,0.00,,,0.00,Wunderground v.1.15,2013-11-19 11:03:00,
2013-11-19 05:09:00,19.5,17.0,30.39,ESE,118,0.0,0.0,90,0.00,,,0.00,Wunderground v.1.15,2013-11-19 11:09:00,
2013-11-19 05:15:00,18.9,16.2,30.39,ESE,118,0.0,0.0,89,0.00,,,0.00,Wunderground v.1.15,2013-11-19 11:15:00,
2013-11-19 05:21:00,18.3,15.6,30.39,ESE,118,0.0,0.0,89,0.00,,,0.00,Wunderground v.1.15,2013-11-19 11:21:00,
2013-11-19 05:26:00,18.3,16.4,30.39,ESE,118,0.0,1.0,92,0.00,,,0.00,Wunderground v.1.15,2013-11-19 11:26:00,
2013-11-19 05:32:00,18.4,16.5,30.39,ESE,118,0.0,0.0,92,0.00,,,0.00,Wunderground v.1.15,2013-11-19 11:32:00,
2013-11-19 05:38:00,18.6,16.7,30.39,ESE,118,0.0,0.0,92,0.00,,,0.00,Wunderground v.1.15,2013-11-19 11:38:00,
2013-11-19 05:43:00,18.3,16.1,30.40,ESE,118,0.0,0.0,91,0.00,,,0.00,Wunderground v.1.15,2013-11-19 11:43:00,
2013-11-19 05:49:00,18.0,15.8,30.40,ESE,118,0.0,0.0,91,0.00,,,0.00,Wunderground v.1.15,2013-11-19 11:49:00,
2013-11-19 05:55:00,17.6,15.7,30.40,ESE,118,0.0,0.0,92,0.00,,,0.00,Wunderground v.1.15,2013-11-19 11:55:00,
2013-11-19 06:00:00,17.6,15.9,30.40,ESE,118,0.0,0.0,93,0.00,,,0.00,Wunderground v.1.15,2013-11-19 12:00:00,
2013-11-19 06:05:00,17.4,15.7,30.40,ESE,118,0.0,1.0,93,0.00,,,0.00,Wunderground v.1.15,2013-11-19 12:05:00,
2013-11-19 06:11:00,17.9,16.5,30.41,SE,141,1.0,1.0,94,0.00,,,0.00,Wunderground v.1.15,2013-11-19 12:11:00,
2013-11-19 06:16:00,17.9,16.5,30.41,SE,141,1.0,1.0,94,0.00,,,0.00,Wunderground v.1.15,2013-11-19 12:16:00,
2013-11-19 06:22:00,18.2,16.8,30.41,SE,142,0.0,1.0,94,0.00,,,0.00,Wunderground v.1.15,2013-11-19 12:22:00,
2013-11-19 06:28:00,18.4,17.0,30.42,SE,141,0.0,1.0,94,0.00,,,0.00,Wunderground v.1.15,2013-11-19 12:28:00,
2013-11-19 06:34:00,18.5,16.8,30.42,SE,142,0.0,0.0,93,0.00,,,0.00,Wunderground v.1.15,2013-11-19 12:34:00,
2013-11-19 06:39:00,18.5,16.8,30.42,SE,142,0.0,0.0,93,0.00,,,0.00,Wunderground v.1.15,2013-11-19 12:39:00,
2013-11-19 06:45:00,18.5,16.8,30.42,SE,141,0.0,0.0,93,0.00,,,0.00,Wunderground v.1.15,2013-11-19 12:45:00,
2013-11-19 06:50:00,18.4,16.7,30.42,SSE,147,0.0,0.0,93,0.00,,,0.00,Wunderground v.1.15,2013-11-19 12:50:00,
2013-11-19 06:56:00,18.2,16.5,30.42,SE,146,0.0,0.0,93,0.00,,,0.00,Wunderground v.1.15,2013-11-19 12:56:00,
2013-11-19 07:01:00,17.9,16.2,30.42,SE,146,0.0,0.0,93,0.00,,,0.00,Wunderground v.1.15,2013-11-19 13:01:00,
2013-11-19 07:07:00,17.7,16.0,30.42,SSE,148,0.0,0.0,93,0.00,,,0.00,Wunderground v.1.15,2013-11-19 13:07:00,
2013-11-19 07:13:00,17.6,15.9,30.42,SE,146,0.0,0.0,93,0.00,,,0.00,Wunderground v.1.15,2013-11-19 13:13:00,
2013-11-19 07:18:00,17.5,15.8,30.42,SE,146,0.0,0.0,93,0.00,,,0.00,Wunderground v.1.15,2013-11-19 13:18:00,
2013-11-19 07:24:00,17.5,15.8,30.42,SE,146,0.0,0.0,93,0.00,,,0.00,Wunderground v.1.15,2013-11-19 13:24:00,
2013-11-19 07:30:00,17.9,16.5,30.42,SE,146,0.0,0.0,94,0.00,,,0.00,Wunderground v.1.15,2013-11-19 13:30:00,
2013-11-19 07:36:00,19.5,18.3,30.41,SE,146,0.0,0.0,95,0.00,,,0.00,Wunderground v.1.15,2013-11-19 13:36:00,
2013-11-19 07:41:00,21.5,20.3,30.42,SE,146,0.0,0.0,95,0.00,,,0.00,Wunderground v.1.15,2013-11-19 13:41:00,
2013-11-19 07:47:00,23.6,21.1,30.42,SSE,147,0.0,0.0,90,0.00,,,0.00,Wunderground v.1.15,2013-11-19 13:47:00,
2013-11-19 07:53:00,24.6,22.1,30.42,SE,146,0.0,0.0,90,0.00,,,0.00,Wunderground v.1.15,2013-11-19 13:53:00,
2013-11-19 07:58:00,26.0,22.7,30.42,SE,146,0.0,0.0,87,0.00,,,0.00,Wunderground v.1.15,2013-11-19 13:58:00,
2013-11-19 08:03:00,26.5,23.2,30.42,West,263,0.0,1.0,87,0.00,,,0.00,Wunderground v.1.15,2013-11-19 14:03:00,
2013-11-19 08:09:00,26.1,21.9,30.42,West,264,0.0,1.0,84,0.00,,,0.00,Wunderground v.1.15,2013-11-19 14:09:00,
2013-11-19 08:15:00,26.2,22.3,30.42,West,264,0.0,0.0,85,0.00,,,0.00,Wunderground v.1.15,2013-11-19 14:15:00,
2013-11-19 08:21:00,27.5,23.3,30.42,West,264,0.0,0.0,84,0.00,,,0.00,Wunderground v.1.15,2013-11-19 14:21:00,
2013-11-19 08:27:00,28.0,23.2,30.42,WSW,241,0.0,1.0,82,0.00,,,0.00,Wunderground v.1.15,2013-11-19 14:27:00,
2013-11-19 08:28:00,27.8,23.0,30.43,West,262,0.0,1.0,82,0.00,,,0.00,Wunderground v.1.15,2013-11-19 14:28:00,
2013-11-19 08:34:00,27.7,23.2,30.43,SW,236,0.0,0.0,83,0.00,,,0.00,Wunderground v.1.15,2013-11-19 14:34:00,
2013-11-19 08:39:00,28.5,24.3,30.43,SW,236,0.0,0.0,84,0.00,,,0.00,Wunderground v.1.15,2013-11-19 14:39:00,
2013-11-19 08:44:00,30.3,25.5,30.43,SW,236,0.0,0.0,82,0.00,,,0.00,Wunderground v.1.15,2013-11-19 14:44:00,
2013-11-19 08:50:00,31.1,24.7,30.44,West,272,0.0,1.0,77,0.00,,,0.00,Wunderground v.1.15,2013-11-19 14:50:00,
2013-11-19 08:56:00,30.8,24.7,30.43,SW,223,0.0,1.0,78,0.00,,,0.00,Wunderground v.1.15,2013-11-19 14:56:00,
2013-11-19 09:02:00,31.8,25.4,30.44,SW,223,0.0,0.0,77,0.00,,,0.00,Wunderground v.1.15,2013-11-19 15:02:00,
2013-11-19 09:07:00,32.7,25.0,30.44,SW,223,0.0,0.0,73,0.00,,,0.00,Wunderground v.1.15,2013-11-19 15:07:00,
2013-11-19 09:13:00,33.6,26.2,30.44,SW,223,0.0,0.0,74,0.00,,,0.00,Wunderground v.1.15,2013-11-19 15:13:00,
2013-11-19 09:18:00,33.2,24.5,30.44,NNW,347,0.0,2.0,70,0.00,,,0.00,Wunderground v.1.15,2013-11-19 15:18:00,
2013-11-19 09:23:00,32.9,24.5,30.44,NNW,348,1.0,2.0,71,0.00,,,0.00,Wunderground v.1.15,2013-11-19 15:23:00,
2013-11-19 09:29:00,32.8,24.4,30.44,ESE,107,1.0,2.0,71,0.00,,,0.00,Wunderground v.1.15,2013-11-19 15:29:00,
2013-11-19 09:34:00,32.7,23.6,30.44,NE,39,1.0,3.0,69,0.00,,,0.00,Wunderground v.1.15,2013-11-19 15:34:00,
2013-11-19 09:40:00,31.8,22.4,30.44,North,5,2.0,2.0,68,0.00,,,0.00,Wunderground v.1.15,2013-11-19 15:40:00,
2013-11-19 09:46:00,31.8,23.5,30.43,NNE,31,2.0,4.0,71,0.00,,,0.00,Wunderground v.1.15,2013-11-19 15:46:00,
2013-11-19 09:52:00,31.7,23.0,30.43,NNW,346,2.0,2.0,70,0.00,,,0.00,Wunderground v.1.15,2013-11-19 15:52:00,
2013-11-19 09:57:00,32.1,23.1,30.44,NNE,31,1.0,3.0,69,0.00,,,0.00,Wunderground v.1.15,2013-11-19 15:57:00,
2013-11-19 10:03:00,32.3,23.3,30.44,North,350,1.0,2.0,69,0.00,,,0.00,Wunderground v.1.15,2013-11-19 16:03:00,
2013-11-19 10:09:00,32.7,23.3,30.44,NNE,27,1.0,4.0,68,0.00,,,0.00,Wunderground v.1.15,2013-11-19 16:09:00,
2013-11-19 10:14:00,32.7,23.3,30.44,North,360,2.0,2.0,68,0.00,,,0.00,Wunderground v.1.15,2013-11-19 16:14:00,
2013-11-19 10:20:00,32.8,23.0,30.43,NNW,343,2.0,2.0,67,0.00,,,0.00,Wunderground v.1.15,2013-11-19 16:20:00,
2013-11-19 10:26:00,33.2,23.4,30.43,NNE,13,1.0,2.0,67,0.00,,,0.00,Wunderground v.1.15,2013-11-19 16:26:00,
2013-11-19 10:32:00,33.5,23.0,30.43,East,96,1.0,4.0,65,0.00,,,0.00,Wunderground v.1.15,2013-11-19 16:32:00,
2013-11-19 10:37:00,33.5,23.0,30.43,NNE,30,2.0,4.0,65,0.00,,,0.00,Wunderground v.1.15,2013-11-19 16:37:00,
2013-11-19 10:43:00,34.1,23.9,30.43,East,86,2.0,2.0,66,0.00,,,0.00,Wunderground v.1.15,2013-11-19 16:43:00,
2013-11-19 10:49:00,34.1,23.6,30.43,SE,137,3.0,5.0,65,0.00,,,0.00,Wunderground v.1.15,2013-11-19 16:49:00,
2013-11-19 10:55:00,33.9,23.0,30.43,SSE,159,4.0,5.0,64,0.00,,,0.00,Wunderground v.1.15,2013-11-19 16:55:00,
2013-11-19 11:00:00,34.3,24.1,30.42,NNE,16,3.0,5.0,66,0.00,,,0.00,Wunderground v.1.15,2013-11-19 17:00:00,
2013-11-19 11:06:00,34.6,24.0,30.42,East,82,2.0,5.0,65,0.00,,,0.00,Wunderground v.1.15,2013-11-19 17:06:00,
2013-11-19 11:12:00,35.1,24.5,30.42,NE,43,2.0,2.0,65,0.00,,,0.00,Wunderground v.1.15,2013-11-19 17:12:00,
2013-11-19 11:18:00,35.3,24.3,30.42,NE,40,2.0,4.0,64,0.00,,,0.00,Wunderground v.1.15,2013-11-19 17:18:00,
2013-11-19 11:24:00,34.9,23.9,30.42,East,97,3.0,6.0,64,0.00,,,0.00,Wunderground v.1.15,2013-11-19 17:24:00,
2013-11-19 11:29:00,35.2,24.2,30.41,ESE,103,2.0,6.0,64,0.00,,,0.00,Wunderground v.1.15,2013-11-19 17:29:00,
2013-11-19 11:35:00,35.4,24.0,30.41,SE,145,3.0,5.0,63,0.00,,,0.00,Wunderground v.1.15,2013-11-19 17:35:00,
2013-11-19 11:38:00,35.5,24.1,30.41,ESE,114,3.0,5.0,63,0.00,,,0.00,Wunderground v.1.15,2013-11-19 17:38:00,
2013-11-19 11:44:00,36.0,24.2,30.41,ESE,119,3.0,4.0,62,0.00,,,0.00,Wunderground v.1.15,2013-11-19 17:44:00,
2013-11-19 11:50:00,36.1,23.5,30.41,SSE,167,2.0,3.0,60,0.00,,,0.00,Wunderground v.1.15,2013-11-19 17:50:00,
2013-11-19 11:56:00,36.0,24.2,30.41,SE,136,3.0,3.0,62,0.00,,,0.00,Wunderground v.1.15,2013-11-19 17:56:00,
2013-11-19 12:01:00,36.4,25.0,30.40,SE,146,2.0,2.0,63,0.00,,,0.00,Wunderground v.1.15,2013-11-19 18:01:00,
2013-11-19 12:07:00,36.5,24.3,30.40,East,99,3.0,5.0,61,0.00,,,0.00,Wunderground v.1.15,2013-11-19 18:07:00,
2013-11-19 12:13:00,36.4,23.4,30.40,ENE,57,3.0,4.0,59,0.00,,,0.00,Wunderground v.1.15,2013-11-19 18:13:00,
2013-11-19 12:18:00,36.7,24.1,30.40,North,5,2.0,4.0,60,0.00,,,0.00,Wunderground v.1.15,2013-11-19 18:18:00,
2013-11-19 12:24:00,36.9,23.9,30.40,ENE,78,2.0,2.0,59,0.00,,,0.00,Wunderground v.1.15,2013-11-19 18:24:00,
2013-11-19 12:30:00,36.6,23.6,30.39,East,85,3.0,3.0,59,0.00,,,0.00,Wunderground v.1.15,2013-11-19 18:30:00,
2013-11-19 12:35:00,36.8,24.6,30.39,SE,146,3.0,6.0,61,0.00,,,0.00,Wunderground v.1.15,2013-11-19 18:35:00,
2013-11-19 12:41:00,37.0,24.4,30.39,SE,142,3.0,4.0,60,0.00,,,0.00,Wunderground v.1.15,2013-11-19 18:41:00,
2013-11-19 12:47:00,37.2,23.8,30.39,ENE,69,2.0,4.0,58,0.00,,,0.00,Wunderground v.1.15,2013-11-19 18:47:00,
2013-11-19 12:52:00,37.3,24.7,30.38,NNE,28,2.0,3.0,60,0.00,,,0.00,Wunderground v.1.15,2013-11-19 18:52:00,
2013-11-19 12:58:00,37.2,24.2,30.38,NE,46,3.0,4.0,59,0.00,,,0.00,Wunderground v.1.15,2013-11-19 18:58:00,
2013-11-19 13:03:00,37.4,25.2,30.38,East,95,3.0,4.0,61,0.00,,,0.00,Wunderground v.1.15,2013-11-19 19:03:00,
2013-11-19 13:05:00,37.3,25.1,30.38,SE,138,3.0,4.0,61,0.00,,,0.00,Wunderground v.1.15,2013-11-19 19:05:00,
2013-11-19 13:11:00,37.4,25.6,30.38,SE,138,3.0,6.0,62,0.00,,,0.00,Wunderground v.1.15,2013-11-19 19:11:00,
2013-11-19 13:16:00,37.9,26.4,30.38,East,84,2.0,6.0,63,0.00,,,0.00,Wunderground v.1.15,2013-11-19 19:16:00,
2013-11-19 13:22:00,38.0,26.1,30.38,NE,48,2.0,3.0,62,0.00,,,0.00,Wunderground v.1.15,2013-11-19 19:22:00,
2013-11-19 13:28:00,38.0,26.1,30.37,ESE,103,2.0,4.0,62,0.00,,,0.00,Wunderground v.1.15,2013-11-19 19:28:00,
2013-11-19 13:33:00,37.9,26.0,30.37,East,99,2.0,3.0,62,0.00,,,0.00,Wunderground v.1.15,2013-11-19 19:33:00,
2013-11-19 13:39:00,38.1,26.6,30.37,East,85,2.0,3.0,63,0.00,,,0.00,Wunderground v.1.15,2013-11-19 19:39:00,
2013-11-19 13:44:00,38.1,26.2,30.37,East,94,2.0,3.0,62,0.00,,,0.00,Wunderground v.1.15,2013-11-19 19:44:00,
2013-11-19 13:50:00,37.8,25.9,30.37,ESE,108,3.0,3.0,62,0.00,,,0.00,Wunderground v.1.15,2013-11-19 19:50:00,
2013-11-19 13:56:00,37.9,26.4,30.37,East,92,2.0,5.0,63,0.00,,,0.00,Wunderground v.1.15,2013-11-19 19:56:00,
2013-11-19 14:01:00,37.8,26.3,30.37,East,90,2.0,2.0,63,0.00,,,0.00,Wunderground v.1.15,2013-11-19 20:01:00,
2013-11-19 14:07:00,37.8,25.9,30.37,East,94,2.0,4.0,62,0.00,,,0.00,Wunderground v.1.15,2013-11-19 20:07:00,
2013-11-19 14:13:00,37.6,26.5,30.37,SSE,148,3.0,3.0,64,0.00,,,0.00,Wunderground v.1.15,2013-11-19 20:13:00,
2013-11-19 14:19:00,37.5,26.4,30.37,ESE,110,3.0,4.0,64,0.00,,,0.00,Wunderground v.1.15,2013-11-19 20:19:00,
2013-11-19 14:24:00,37.6,26.9,30.37,SSE,163,3.0,4.0,65,0.00,,,0.00,Wunderground v.1.15,2013-11-19 20:24:00,
2013-11-19 14:30:00,37.7,26.2,30.37,ESE,103,3.0,3.0,63,0.00,,,0.00,Wunderground v.1.15,2013-11-19 20:30:00,
2013-11-19 14:35:00,37.6,26.9,30.37,NNE,30,3.0,3.0,65,0.00,,,0.00,Wunderground v.1.15,2013-11-19 20:35:00,
2013-11-19 14:41:00,37.5,26.8,30.37,SE,127,3.0,4.0,65,0.00,,,0.00,Wunderground v.1.15,2013-11-19 20:41:00,
2013-11-19 14:47:00,37.3,26.6,30.37,East,98,3.0,4.0,65,0.00,,,0.00,Wunderground v.1.15,2013-11-19 20:47:00,
2013-11-19 14:53:00,37.1,26.8,30.37,NE,47,3.0,4.0,66,0.00,,,0.00,Wunderground v.1.15,2013-11-19 20:53:00,
2013-11-19 14:58:00,36.8,26.5,30.37,East,88,3.0,5.0,66,0.00,,,0.00,Wunderground v.1.15,2013-11-19 20:58:00,
2013-11-19 15:03:00,36.7,26.8,30.37,East,90,3.0,5.0,67,0.00,,,0.00,Wunderground v.1.15,2013-11-19 21:03:00,
2013-11-19 15:09:00,36.4,26.8,30.37,ESE,110,2.0,5.0,68,0.00,,,0.00,Wunderground v.1.15,2013-11-19 21:09:00,
2013-11-19 15:15:00,36.3,26.4,30.37,East,84,3.0,7.0,67,0.00,,,0.00,Wunderground v.1.15,2013-11-19 21:15:00,
2013-11-19 15:21:00,36.0,26.5,30.37,East,82,3.0,3.0,68,0.00,,,0.00,Wunderground v.1.15,2013-11-19 21:21:00,
2013-11-19 15:26:00,35.5,26.3,30.37,East,90,2.0,6.0,69,0.00,,,0.00,Wunderground v.1.15,2013-11-19 21:26:00,
2013-11-19 15:32:00,35.1,26.3,30.37,East,81,2.0,3.0,70,0.00,,,0.00,Wunderground v.1.15,2013-11-19 21:32:00,
2013-11-19 15:38:00,34.8,26.4,30.37,NNE,26,2.0,4.0,71,0.00,,,0.00,Wunderground v.1.15,2013-11-19 21:38:00,
2013-11-19 15:43:00,34.6,26.5,30.37,East,83,3.0,5.0,72,0.00,,,0.00,Wunderground v.1.15,2013-11-19 21:43:00,
2013-11-19 15:49:00,34.5,26.4,30.37,NNW,335,2.0,5.0,72,0.00,,,0.00,Wunderground v.1.15,2013-11-19 21:49:00,
2013-11-19 15:54:00,34.4,26.3,30.37,East,90,2.0,3.0,72,0.00,,,0.00,Wunderground v.1.15,2013-11-19 21:54:00,
2013-11-19 16:00:00,34.0,26.3,30.37,NNW,329,2.0,2.0,73,0.00,,,0.00,Wunderground v.1.15,2013-11-19 22:00:00,
2013-11-19 16:06:00,33.6,26.2,30.37,ESE,123,2.0,2.0,74,0.00,,,0.00,Wunderground v.1.15,2013-11-19 22:06:00,
2013-11-19 16:11:00,33.2,25.8,30.37,ESE,109,2.0,2.0,74,0.00,,,0.00,Wunderground v.1.15,2013-11-19 22:11:00,
2013-11-19 16:17:00,32.8,25.7,30.37,NE,43,1.0,2.0,75,0.00,,,0.00,Wunderground v.1.15,2013-11-19 22:17:00,
2013-11-19 16:23:00,32.4,25.4,30.37,SSE,147,1.0,3.0,75,0.00,,,0.00,Wunderground v.1.15,2013-11-19 22:23:00,
2013-11-19 16:28:00,32.2,25.8,30.37,East,90,2.0,3.0,77,0.00,,,0.00,Wunderground v.1.15,2013-11-19 22:28:00,
2013-11-19 16:33:00,31.9,25.8,30.37,NE,55,1.0,2.0,78,0.00,,,0.00,Wunderground v.1.15,2013-11-19 22:33:00,
2013-11-19 16:39:00,31.5,25.7,30.37,East,100,1.0,5.0,79,0.00,,,0.00,Wunderground v.1.15,2013-11-19 22:39:00,
2013-11-19 16:44:00,31.2,25.4,30.37,NNE,23,1.0,2.0,79,0.00,,,0.00,Wunderground v.1.15,2013-11-19 22:44:00,
2013-11-19 16:50:00,31.0,25.6,30.37,ENE,59,1.0,3.0,80,0.00,,,0.00,Wunderground v.1.15,2013-11-19 22:50:00,
2013-11-19 16:56:00,30.8,25.7,30.37,SE,134,1.0,3.0,81,0.00,,,0.00,Wunderground v.1.15,2013-11-19 22:56:00,
2013-11-19 17:02:00,30.5,25.4,30.37,ENE,71,1.0,3.0,81,0.00,,,0.00,Wunderground v.1.15,2013-11-19 23:02:00,
2013-11-19 17:07:00,30.3,25.5,30.37,East,85,1.0,4.0,82,0.00,,,0.00,Wunderground v.1.15,2013-11-19 23:07:00,
2013-11-19 17:13:00,30.1,25.3,30.37,ESE,105,1.0,2.0,82,0.00,,,0.00,Wunderground v.1.15,2013-11-19 23:13:00,
2013-11-19 17:19:00,30.0,25.5,30.37,South,172,1.0,2.0,83,0.00,,,0.00,Wunderground v.1.15,2013-11-19 23:19:00,
2013-11-19 17:24:00,29.9,25.4,30.37,ESE,118,1.0,2.0,83,0.00,,,0.00,Wunderground v.1.15,2013-11-19 23:24:00,
2013-11-19 17:30:00,29.8,25.6,30.37,ENE,77,1.0,1.0,84,0.00,,,0.00,Wunderground v.1.15,2013-11-19 23:30:00,
2013-11-19 17:36:00,29.8,25.6,30.37,ENE,77,1.0,1.0,84,0.00,,,0.00,Wunderground v.1.15,2013-11-19 23:36:00,
2013-11-19 17:41:00,29.4,25.4,30.37,East,87,1.0,1.0,85,0.00,,,0.00,Wunderground v.1.15,2013-11-19 23:41:00,
2013-11-19 17:47:00,29.5,25.5,30.37,ENE,72,1.0,2.0,85,0.00,,,0.00,Wunderground v.1.15,2013-11-19 23:47:00,
2013-11-19 17:53:00,29.4,25.4,30.37,East,82,1.0,1.0,85,0.00,,,0.00,Wunderground v.1.15,2013-11-19 23:53:00,
2013-11-19 17:59:00,29.2,25.3,30.37,ESE,120,0.0,1.0,85,0.00,,,0.00,Wunderground v.1.15,2013-11-19 23:59:00,
2013-11-19 18:05:00,29.2,25.3,30.37,ESE,120,1.0,1.0,85,0.00,,,0.00,Wunderground v.1.15,2013-11-20 00:05:00,
2013-11-19 18:10:00,29.0,25.3,30.36,ESE,103,1.0,1.0,86,0.00,,,0.00,Wunderground v.1.15,2013-11-20 00:10:00,
2013-11-19 18:16:00,29.0,25.6,30.36,ESE,102,0.0,2.0,87,0.00,,,0.00,Wunderground v.1.15,2013-11-20 00:16:00,
2013-11-19 18:21:00,29.0,25.6,30.36,ESE,102,1.0,1.0,87,0.00,,,0.00,Wunderground v.1.15,2013-11-20 00:21:00,
2013-11-19 18:26:00,-999.9,-99.9,30.36,North,32767,-999.0,1.0,255,-99.99,,,0.00,Wunderground v.1.15,2013-11-20 00:26:00,
2013-11-19 19:29:00,-999.9,-99.9,30.35,North,32767,-999.0,0.0,255,-99.99,,,0.00,Wunderground v.1.15,2013-11-20 01:29:00,
2013-11-19 19:35:00,-999.9,-99.9,30.34,North,32767,-999.0,0.0,255,-99.99,,,0.00,Wunderground v.1.15,2013-11-20 01:35:00,
2013-11-19 19:40:00,-999.9,-99.9,30.34,North,32767,-999.0,0.0,255,-99.99,,,0.00,Wunderground v.1.15,2013-11-20 01:40:00,
2013-11-19 19:46:00,-999.9,-99.9,30.34,North,32767,-999.0,0.0,255,-99.99,,,0.00,Wunderground v.1.15,2013-11-20 01:46:00,
2013-11-19 19:51:00,-999.9,-99.9,30.34,North,32767,-999.0,0.0,255,-99.99,,,0.00,Wunderground v.1.15,2013-11-20 01:51:00,
2013-11-19 19:57:00,-999.9,-99.9,30.34,North,32767,-999.0,0.0,255,-99.99,,,0.00,Wunderground v.1.15,2013-11-20 01:57:00,
2013-11-19 20:03:00,-999.9,-99.9,30.35,North,32767,-999.0,0.0,255,-99.99,,,0.00,Wunderground v.1.15,2013-11-20 02:03:00,
2013-11-19 20:09:00,-999.9,-99.9,30.35,North,32767,-999.0,0.0,255,-99.99,,,0.00,Wunderground v.1.15,2013-11-20 02:09:00,
2013-11-19 20:15:00,-999.9,-99.9,30.35,North,32767,-999.0,0.0,255,-99.99,,,0.00,Wunderground v.1.15,2013-11-20 02:15:00,
2013-11-19 20:21:00,-999.9,-99.9,30.35,North,32767,-999.0,0.0,255,-99.99,,,0.00,Wunderground v.1.15,2013-11-20 02:21:00,
2013-11-19 20:26:00,-999.9,-99.9,30.34,North,32767,-999.0,0.0,255,-99.99,,,0.00,Wunderground v.1.15,2013-11-20 02:26:00,
2013-11-19 20:32:00,-999.9,-99.9,30.34,North,32767,-999.0,0.0,255,-99.99,,,0.00,Wunderground v.1.15,2013-11-20 02:32:00,
2013-11-19 20:38:00,-999.9,-99.9,30.34,North,32767,-999.0,0.0,255,-99.99,,,0.00,Wunderground v.1.15,2013-11-20 02:38:00,
2013-11-19 20:43:00,27.9,25.9,30.34,SE,136,0.0,1.0,92,0.00,,,0.00,Wunderground v.1.15,2013-11-20 02:43:00,
2013-11-19 20:49:00,28.1,26.1,30.34,SE,144,1.0,2.0,92,0.00,,,0.00,Wunderground v.1.15,2013-11-20 02:49:00,
2013-11-19 20:55:00,28.5,26.5,30.34,SE,128,1.0,3.0,92,0.00,,,0.00,Wunderground v.1.15,2013-11-20 02:55:00,
2013-11-19 21:00:00,28.7,26.7,30.33,SSE,159,2.0,2.0,92,0.00,,,0.00,Wunderground v.1.15,2013-11-20 03:00:00,
2013-11-19 21:05:00,29.0,27.0,30.33,SE,126,2.0,4.0,92,0.00,,,0.00,Wunderground v.1.15,2013-11-20 03:05:00,
2013-11-19 21:11:00,29.0,26.7,30.33,ESE,121,2.0,2.0,91,0.00,,,0.00,Wunderground v.1.15,2013-11-20 03:11:00,
2013-11-19 21:17:00,29.1,26.8,30.34,SSE,162,2.0,3.0,91,0.00,,,0.00,Wunderground v.1.15,2013-11-20 03:17:00,
2013-11-19 21:22:00,29.2,26.9,30.33,ESE,103,2.0,2.0,91,0.00,,,0.00,Wunderground v.1.15,2013-11-20 03:22:00,
2013-11-19 21:28:00,29.2,26.9,30.34,ESE,122,2.0,3.0,91,0.00,,,0.00,Wunderground v.1.15,2013-11-20 03:28:00,
2013-11-19 21:33:00,29.3,27.0,30.34,SE,144,2.0,4.0,91,0.00,,,0.00,Wunderground v.1.15,2013-11-20 03:33:00,
2013-11-19 21:39:00,29.2,26.9,30.34,SE,141,2.0,4.0,91,0.00,,,0.00,Wunderground v.1.15,2013-11-20 03:39:00,
2013-11-19 21:45:00,29.1,26.8,30.34,SE,133,1.0,2.0,91,0.00,,,0.00,Wunderground v.1.15,2013-11-20 03:45:00,
2013-11-19 21:51:00,28.9,26.6,30.34,SE,130,1.0,2.0,91,0.00,,,0.00,Wunderground v.1.15,2013-11-20 03:51:00,
2013-11-19 21:56:00,29.0,27.0,30.34,SE,134,2.0,2.0,92,0.00,,,0.00,Wunderground v.1.15,2013-11-20 03:56:00,
2013-11-19 22:01:00,29.0,26.7,30.34,SE,125,1.0,1.0,91,0.00,,,0.00,Wunderground v.1.15,2013-11-20 04:01:00,
2013-11-19 22:07:00,28.8,26.8,30.34,SSE,152,1.0,1.0,92,0.00,,,0.00,Wunderground v.1.15,2013-11-20 04:07:00,
2013-11-19 22:13:00,29.0,27.0,30.34,East,83,1.0,2.0,92,0.00,,,0.00,Wunderground v.1.15,2013-11-20 04:13:00,
2013-11-19 22:19:00,29.1,27.1,30.34,SE,136,1.0,3.0,92,0.00,,,0.00,Wunderground v.1.15,2013-11-20 04:19:00,
2013-11-19 22:24:00,29.2,27.2,30.34,SE,134,1.0,1.0,92,0.00,,,0.00,Wunderground v.1.15,2013-11-20 04:24:00,
2013-11-19 22:30:00,29.1,27.1,30.34,SE,143,1.0,1.0,92,0.00,,,0.00,Wunderground v.1.15,2013-11-20 04:30:00,
2013-11-19 22:36:00,29.1,27.1,30.34,SE,137,1.0,1.0,92,0.00,,,0.00,Wunderground v.1.15,2013-11-20 04:36:00,
2013-11-19 22:41:00,29.1,27.1,30.34,East,97,1.0,1.0,92,0.00,,,0.00,Wunderground v.1.15,2013-11-20 04:41:00,
2013-11-19 22:47:00,29.2,27.2,30.34,SE,141,1.0,3.0,92,0.00,,,0.00,Wunderground v.1.15,2013-11-20 04:47:00,
2013-11-19 22:52:00,29.2,27.2,30.34,SE,130,1.0,1.0,92,0.00,,,0.00,Wunderground v.1.15,2013-11-20 04:52:00,
2013-11-19 22:58:00,29.2,27.4,30.33,SE,129,1.0,1.0,93,0.00,,,0.00,Wunderground v.1.15,2013-11-20 04:58:00,
2013-11-19 23:01:00,29.3,27.5,30.34,SE,139,1.0,1.0,93,0.00,,,0.00,Wunderground v.1.15,2013-11-20 05:01:00,
2013-11-19 23:02:00,29.3,27.5,30.34,SE,132,1.0,3.0,93,0.00,,,0.00,Wunderground v.1.15,2013-11-20 05:02:00,
2013-11-19 23:04:00,29.4,27.6,30.33,East,90,1.0,3.0,93,0.00,,,0.00,Wunderground v.1.15,2013-11-20 05:04:00,
2013-11-19 23:05:00,29.4,27.6,30.33,SE,142,1.0,3.0,93,0.00,,,0.00,Wunderground v.1.15,2013-11-20 05:05:00,
2013-11-19 23:07:00,29.4,27.6,30.34,SE,141,1.0,3.0,93,0.00,,,0.00,Wunderground v.1.15,2013-11-20 05:07:00,
2013-11-19 23:08:00,29.5,27.5,30.33,SE,141,1.0,3.0,92,0.00,,,0.00,Wunderground v.1.15,2013-11-20 05:08:00,
2013-11-19 23:14:00,29.5,27.5,30.33,SE,131,1.0,2.0,92,0.00,,,0.00,Wunderground v.1.15,2013-11-20 05:14:00,
2013-11-19 23:20:00,29.5,27.5,30.33,ESE,120,1.0,1.0,92,0.00,,,0.00,Wunderground v.1.15,2013-11-20 05:20:00,
2013-11-19 23:25:00,29.6,27.8,30.33,SSE,149,1.0,1.0,93,0.00,,,0.00,Wunderground v.1.15,2013-11-20 05:25:00,
2013-11-19 23:31:00,29.5,27.5,30.33,SSE,150,0.0,0.0,92,0.00,,,0.00,Wunderground v.1.15,2013-11-20 05:31:00,
2013-11-19 23:36:00,29.3,27.3,30.33,SSE,164,0.0,1.0,92,0.00,,,0.00,Wunderground v.1.15,2013-11-20 05:36:00,
2013-11-19 23:42:00,28.8,26.5,30.33,SSE,164,1.0,1.0,91,0.00,,,0.00,Wunderground v.1.15,2013-11-20 05:42:00,
2013-11-19 23:48:00,28.5,26.7,30.33,SE,145,0.0,1.0,93,0.00,,,0.00,Wunderground v.1.15,2013-11-20 05:48:00,
2013-11-19 23:53:00,28.6,26.8,30.33,SE,146,0.0,1.0,93,0.00,,,0.00,Wunderground v.1.15,2013-11-20 05:53:00,
2013-11-19 23:59:00,28.8,27.3,30.33,SE,137,1.0,1.0,94,0.00,,,0.00,Wunderground v.1.15,2013-11-20 05:59:00,